Time;durP1;ratioP1;P1;durP2;ratioP2;P2;SDS_P1;SDS_P2;PMS_P1;PMS_P2;Temp;Humidity;BMP_temperature;BMP_pressure;BME280_temperature;BME280_humidity;BME280_pressure;Samples;Min_cycle;Max_cycle;Signal;HPM_P1;HPM_P2
2021/10/11 00:02:02;;;;;;;;;;;18.60;45.00;;;;;;8235603;28;19922;-49
2021/10/11 00:06:03;;;;;;;;;;;18.60;44.90;;;;;;8234580;28;19960;-48
2021/10/11 00:10:05;;;;;;;;;;;18.60;44.90;;;;;;8234704;28;20145;-49
2021/10/11 00:14:06;;;;;;;;;;;18.60;45.00;;;;;;8234538;28;20021;-49
2021/10/11 00:18:07;;;;;;;;;;;18.60;44.90;;;;;;8234733;28;20363;-48
2021/10/11 00:22:07;;;;;;;;;;;18.60;45.00;;;;;;8234462;28;19922;-48
2021/10/11 00:26:08;;;;;;;;;;;18.60;44.90;;;;;;8234214;28;20008;-48
2021/10/11 00:30:10;;;;;;;;;;;18.50;44.80;;;;;;8233750;28;19922;-48
2021/10/11 00:34:10;;;;;;;;;;;18.60;44.90;;;;;;8234440;28;19998;-48
2021/10/11 00:38:10;;;;;;;;;;;18.50;44.90;;;;;;8234779;28;19989;-48
2021/10/11 00:42:11;;;;;;;;;;;18.50;44.80;;;;;;8233444;28;19922;-49
2021/10/11 00:46:11;;;;;;;;;;;18.50;44.90;;;;;;8233631;28;19914;-48
2021/10/11 00:50:12;;;;;;;;;;;18.50;44.80;;;;;;8233710;28;19914;-49
2021/10/11 00:54:13;;;;;;;;;;;18.50;44.90;;;;;;8234295;28;20005;-48
2021/10/11 00:58:13;;;;;;;;;;;18.50;44.80;;;;;;8233458;28;19914;-47
2021/10/11 01:02:14;;;;;;;;;;;18.50;44.80;;;;;;8233233;28;19922;-47
2021/10/11 01:06:14;;;;;;;;;;;18.50;44.80;;;;;;8232229;28;19977;-48
2021/10/11 01:10:15;;;;;;;;;;;18.50;44.80;;;;;;8233322;28;19910;-49
2021/10/11 01:14:16;;;;;;;;;;;18.50;44.90;;;;;;8232980;28;20433;-49
2021/10/11 01:18:16;;;;;;;;;;;18.40;44.80;;;;;;8232579;28;19921;-49
2021/10/11 01:22:18;;;;;;;;;;;18.50;44.80;;;;;;8233190;28;20017;-48
2021/10/11 01:26:19;;;;;;;;;;;18.40;44.80;;;;;;8233120;28;19918;-49
2021/10/11 01:30:19;;;;;;;;;;;18.40;44.90;;;;;;8233283;28;19918;-49
2021/10/11 01:34:19;;;;;;;;;;;18.40;44.70;;;;;;8232675;28;19914;-49
2021/10/11 01:38:20;;;;;;;;;;;18.40;44.80;;;;;;8232746;28;20282;-48
2021/10/11 01:42:20;;;;;;;;;;;18.40;44.80;;;;;;8232144;28;20331;-49
2021/10/11 01:46:21;;;;;;;;;;;18.40;44.70;;;;;;8233359;28;19914;-48
2021/10/11 01:50:21;;;;;;;;;;;18.40;44.80;;;;;;8232745;28;20380;-47
2021/10/11 01:54:22;;;;;;;;;;;18.30;44.70;;;;;;8232467;28;19918;-48
2021/10/11 01:58:22;;;;;;;;;;;18.40;44.70;;;;;;8232498;28;19914;-49
2021/10/11 02:02:23;;;;;;;;;;;18.30;44.70;;;;;;8232811;28;19922;-48
2021/10/11 02:06:23;;;;;;;;;;;18.40;44.70;;;;;;8232034;28;20005;-50
2021/10/11 02:10:24;;;;;;;;;;;18.40;44.70;;;;;;8232337;28;19957;-48
2021/10/11 02:14:24;;;;;;;;;;;18.30;44.60;;;;;;8232335;28;19914;-49
2021/10/11 02:18:25;;;;;;;;;;;18.30;44.70;;;;;;8231697;28;19980;-49
2021/10/11 02:22:25;;;;;;;;;;;18.30;44.60;;;;;;8237368;28;20383;-48
2021/10/11 02:26:26;;;;;;;;;;;18.30;44.70;;;;;;8237802;28;20382;-47
2021/10/11 02:30:26;;;;;;;;;;;18.30;44.60;;;;;;8237407;28;20272;-49
2021/10/11 02:34:27;;;;;;;;;;;18.30;44.60;;;;;;8237684;28;19916;-48
2021/10/11 02:38:27;;;;;;;;;;;18.20;44.60;;;;;;8238194;28;19918;-47
2021/10/11 02:42:28;;;;;;;;;;;18.20;44.60;;;;;;8236894;28;20371;-48
2021/10/11 02:46:28;;;;;;;;;;;18.20;44.60;;;;;;8237296;28;19914;-47
2021/10/11 02:50:29;;;;;;;;;;;18.20;44.50;;;;;;8237227;28;19910;-48
2021/10/11 02:54:29;;;;;;;;;;;18.20;44.60;;;;;;8237220;28;20391;-48
2021/10/11 02:58:30;;;;;;;;;;;18.20;44.50;;;;;;8237361;28;19918;-49
2021/10/11 03:02:30;;;;;;;;;;;18.20;44.60;;;;;;8236714;28;19930;-52
2021/10/11 03:06:31;;;;;;;;;;;18.20;44.60;;;;;;8236326;28;20368;-48
2021/10/11 03:10:31;;;;;;;;;;;18.20;44.50;;;;;;8236894;28;19917;-49
2021/10/11 03:14:32;;;;;;;;;;;18.20;44.60;;;;;;8237222;28;19914;-49
2021/10/11 03:18:32;;;;;;;;;;;18.20;44.60;;;;;;8235817;28;19914;-49
2021/10/11 03:22:33;;;;;;;;;;;18.20;44.60;;;;;;8236126;28;19929;-48
2021/10/11 03:26:33;;;;;;;;;;;18.10;44.60;;;;;;8235999;28;19997;-48
2021/10/11 03:30:34;;;;;;;;;;;18.10;44.50;;;;;;8236411;28;19924;-48
2021/10/11 03:34:34;;;;;;;;;;;18.10;44.60;;;;;;8235260;28;20441;-48
2021/10/11 03:38:35;;;;;;;;;;;18.10;44.50;;;;;;8235688;28;19910;-48
2021/10/11 03:42:35;;;;;;;;;;;18.10;44.50;;;;;;8235061;28;19922;-48
2021/10/11 03:46:36;;;;;;;;;;;18.10;44.50;;;;;;8235193;28;20049;-48
2021/10/11 03:50:36;;;;;;;;;;;18.10;44.50;;;;;;8235905;28;19929;-48
2021/10/11 03:54:37;;;;;;;;;;;18.10;44.40;;;;;;8235221;28;20507;-48
2021/10/11 03:58:37;;;;;;;;;;;18.10;44.50;;;;;;8235230;28;19933;-48
2021/10/11 04:02:38;;;;;;;;;;;18.10;44.40;;;;;;8234338;28;20013;-46
2021/10/11 04:06:38;;;;;;;;;;;18.10;44.40;;;;;;8235104;28;19916;-48
2021/10/11 04:10:51;;;;;;;;;;;18.10;44.50;;;;;;8234924;28;19914;-48
2021/10/11 04:14:53;;;;;;;;;;;18.10;44.40;;;;;;8234198;28;19910;-48
2021/10/11 04:18:53;;;;;;;;;;;18.10;44.40;;;;;;8234776;28;19914;-49
2021/10/11 04:22:54;;;;;;;;;;;18.10;44.40;;;;;;8234751;28;20397;-48
2021/10/11 04:26:54;;;;;;;;;;;18.10;44.40;;;;;;8234415;28;19955;-50
2021/10/11 04:30:55;;;;;;;;;;;18.00;44.40;;;;;;8234363;28;19918;-49
2021/10/11 04:34:55;;;;;;;;;;;18.10;44.50;;;;;;8234379;28;19969;-48
2021/10/11 04:38:55;;;;;;;;;;;18.10;44.40;;;;;;8234776;28;19925;-50
2021/10/11 04:42:56;;;;;;;;;;;18.00;44.30;;;;;;8236070;28;19925;-52
2021/10/11 04:46:56;;;;;;;;;;;18.00;44.30;;;;;;8234362;28;19921;-52
2021/10/11 04:50:57;;;;;;;;;;;18.00;44.30;;;;;;8233576;28;19931;-48
2021/10/11 04:54:58;;;;;;;;;;;18.00;44.30;;;;;;8233825;28;19972;-50
2021/10/11 04:58:58;;;;;;;;;;;18.00;44.40;;;;;;8234165;28;19937;-48
2021/10/11 05:02:58;;;;;;;;;;;18.00;44.30;;;;;;8232868;28;19934;-48
2021/10/11 05:06:59;;;;;;;;;;;18.00;44.30;;;;;;8233341;28;19914;-48
2021/10/11 05:10:59;;;;;;;;;;;18.00;44.30;;;;;;8233218;28;19914;-48
2021/10/11 05:15:00;;;;;;;;;;;18.00;44.30;;;;;;8232902;28;20028;-50
2021/10/11 05:19:01;;;;;;;;;;;18.00;44.30;;;;;;8233717;28;19917;-48
2021/10/11 05:23:01;;;;;;;;;;;17.90;44.30;;;;;;8233024;28;20384;-48
2021/10/11 05:27:02;;;;;;;;;;;17.90;44.30;;;;;;8232584;28;19914;-49
2021/10/11 05:31:02;;;;;;;;;;;17.90;44.30;;;;;;8232800;28;19922;-48
2021/10/11 05:35:03;;;;;;;;;;;17.90;44.30;;;;;;8233595;28;19957;-49
2021/10/11 05:39:03;;;;;;;;;;;17.90;44.30;;;;;;8232341;28;19914;-49
2021/10/11 05:43:06;;;;;;;;;;;17.90;44.30;;;;;;8232758;28;19977;-49
2021/10/11 05:47:06;;;;;;;;;;;17.90;44.30;;;;;;8232702;28;19914;-48
2021/10/11 05:51:07;;;;;;;;;;;17.90;44.30;;;;;;8232820;28;19917;-48
2021/10/11 05:55:08;;;;;;;;;;;17.90;44.30;;;;;;8234058;28;19925;-49
2021/10/11 05:59:09;;;;;;;;;;;17.90;44.30;;;;;;8238863;28;19914;-49
2021/10/11 06:03:09;;;;;;;;;;;17.90;44.30;;;;;;8238086;28;19918;-48
2021/10/11 06:07:10;;;;;;;;;;;17.90;44.30;;;;;;8238727;28;20294;-48
2021/10/11 06:11:14;;;;;;;;;;;17.90;44.30;;;;;;8239312;28;20367;-49
2021/10/11 06:15:15;;;;;;;;;;;17.90;44.30;;;;;;8237851;28;19962;-49
2021/10/11 06:19:15;;;;;;;;;;;17.90;44.30;;;;;;8238149;28;19921;-51
2021/10/11 06:23:16;;;;;;;;;;;17.90;44.30;;;;;;8238184;28;20355;-48
2021/10/11 06:27:16;;;;;;;;;;;17.90;44.30;;;;;;8238041;28;19914;-49
2021/10/11 06:31:17;;;;;;;;;;;17.90;44.40;;;;;;8237761;28;19940;-48
2021/10/11 06:35:17;;;;;;;;;;;17.90;44.30;;;;;;8237614;28;19910;-49
2021/10/11 06:39:17;;;;;;;;;;;17.90;44.30;;;;;;8237073;28;19937;-48
2021/10/11 06:43:18;;;;;;;;;;;17.90;44.30;;;;;;8237835;28;19918;-49
2021/10/11 06:47:19;;;;;;;;;;;17.90;44.30;;;;;;8238008;28;19921;-48
2021/10/11 06:51:19;;;;;;;;;;;17.90;44.40;;;;;;8236832;28;19914;-49
2021/10/11 06:55:20;;;;;;;;;;;17.90;44.40;;;;;;8237593;28;19918;-48
2021/10/11 06:59:20;;;;;;;;;;;17.90;44.40;;;;;;8236832;28;19914;-52
2021/10/11 07:03:24;;;;;;;;;;;17.90;44.40;;;;;;8237191;28;20387;-48
2021/10/11 07:07:28;;;;;;;;;;;17.90;44.40;;;;;;8235812;28;20013;-47
2021/10/11 07:11:29;;;;;;;;;;;17.90;44.40;;;;;;8235831;28;19914;-48
2021/10/11 07:15:30;;;;;;;;;;;17.90;44.40;;;;;;8236073;28;19918;-48
2021/10/11 07:19:30;;;;;;;;;;;17.90;44.40;;;;;;8237018;28;19972;-50
2021/10/11 07:23:31;;;;;;;;;;;17.90;44.40;;;;;;8236162;28;19914;-49
2021/10/11 07:27:32;;;;;;;;;;;17.90;44.50;;;;;;8235561;28;19914;-49
2021/10/11 07:31:32;;;;;;;;;;;17.90;44.50;;;;;;8235846;28;19937;-48
2021/10/11 07:35:33;;;;;;;;;;;17.90;44.50;;;;;;8235822;28;19917;-47
2021/10/11 07:39:33;;;;;;;;;;;17.90;44.50;;;;;;8218814;28;19918;-48
2021/10/11 07:43:34;;;;;;;;;;;17.90;44.50;;;;;;8239575;28;19981;-47
2021/10/11 07:47:34;;;;;;;;;;;17.90;44.50;;;;;;8235408;28;20445;-48
2021/10/11 07:51:35;;;;;;;;;;;17.90;44.50;;;;;;8234873;28;20402;-50
2021/10/11 07:55:36;;;;;;;;;;;17.90;44.50;;;;;;8235611;28;19910;-49
2021/10/11 07:59:36;;;;;;;;;;;17.90;44.50;;;;;;8244476;28;19918;-51
2021/10/11 08:03:37;;;;;;;;;;;17.90;44.50;;;;;;8247697;28;19937;-48
2021/10/11 08:07:37;;;;;;;;;;;17.90;44.60;;;;;;8234596;28;19914;-50
2021/10/11 08:11:42;;;;;;;;;;;17.90;44.50;;;;;;8234991;28;19917;-47
2021/10/11 08:15:42;;;;;;;;;;;17.90;44.60;;;;;;8233182;28;19920;-48
2021/10/11 08:19:43;;;;;;;;;;;17.90;44.60;;;;;;8233099;28;19972;-52
2021/10/11 08:23:43;;;;;;;;;;;17.90;44.60;;;;;;8232120;28;20013;-50
2021/10/11 08:27:44;;;;;;;;;;;17.90;44.70;;;;;;8234248;28;19925;-50
2021/10/11 08:31:44;;;;;;;;;;;17.90;44.70;;;;;;8234411;28;20383;-49
2021/10/11 08:35:45;;;;;;;;;;;17.90;44.70;;;;;;8233315;28;20359;-50
2021/10/11 08:39:45;;;;;;;;;;;17.90;44.70;;;;;;8233461;28;19933;-48
2021/10/11 08:43:46;;;;;;;;;;;17.90;44.60;;;;;;8234004;28;19914;-50
2021/10/11 08:47:47;;;;;;;;;;;17.90;44.60;;;;;;8232992;28;19948;-49
2021/10/11 08:51:47;;;;;;;;;;;17.90;44.70;;;;;;8232957;28;19914;-47
2021/10/11 08:55:48;;;;;;;;;;;17.90;44.70;;;;;;8233736;28;19937;-47
2021/10/11 08:59:49;;;;;;;;;;;17.90;44.70;;;;;;8232394;28;20402;-50
2021/10/11 09:03:50;;;;;;;;;;;17.90;44.70;;;;;;8233230;28;19910;-48
2021/10/11 09:08:04;;;;;;;;;;;17.90;44.70;;;;;;8233835;28;19959;-48
2021/10/11 09:12:14;;;;;;;;;;;17.90;44.70;;;;;;8231518;28;20284;-48
2021/10/11 09:16:34;;;;;;;;;;;17.90;44.70;;;;;;8232579;28;19921;-50
2021/10/11 09:20:39;;;;;;;;;;;17.90;44.70;;;;;;8232482;28;20386;-48
2021/10/11 09:24:40;;;;;;;;;;;18.00;44.70;;;;;;8232617;28;19946;-48
2021/10/11 09:28:51;;;;;;;;;;;17.90;44.70;;;;;;8233530;28;20301;-48
2021/10/11 09:33:04;;;;;;;;;;;17.90;44.70;;;;;;8238043;28;19914;-49
2021/10/11 09:37:05;;;;;;;;;;;17.90;44.70;;;;;;8238908;28;20291;-48
2021/10/11 09:41:06;;;;;;;;;;;18.00;44.70;;;;;;8237398;28;19929;-49
2021/10/11 09:45:06;;;;;;;;;;;17.90;44.70;;;;;;8235617;28;20013;-49
2021/10/11 09:49:07;;;;;;;;;;;18.00;44.70;;;;;;8238063;28;19914;-50
2021/10/11 09:53:09;;;;;;;;;;;18.00;44.80;;;;;;8239017;28;20018;-53
2021/10/11 09:57:10;;;;;;;;;;;18.00;44.70;;;;;;8238055;28;20024;-49
2021/10/11 10:01:10;;;;;;;;;;;18.00;44.70;;;;;;8238746;28;19918;-48
2021/10/11 10:05:18;;;;;;;;;;;18.00;44.80;;;;;;8238558;28;20347;-49
2021/10/11 10:09:19;;;;;;;;;;;18.00;44.80;;;;;;8237769;28;19925;-50
2021/10/11 10:13:20;;;;;;;;;;;18.00;44.80;;;;;;8238071;28;19945;-49
2021/10/11 10:17:27;;;;;;;;;;;18.00;44.80;;;;;;8236695;28;19915;-48
2021/10/11 10:21:31;;;;;;;;;;;18.00;44.70;;;;;;8237820;28;19918;-49
2021/10/11 10:25:32;;;;;;;;;;;18.00;44.70;;;;;;8237896;28;20433;-48
2021/10/11 10:29:46;;;;;;;;;;;18.00;44.80;;;;;;8238028;28;19969;-48
2021/10/11 10:33:46;;;;;;;;;;;18.00;44.80;;;;;;8237804;28;19983;-49
2021/10/11 10:37:47;;;;;;;;;;;18.00;44.80;;;;;;8237822;28;19933;-47
2021/10/11 10:41:55;;;;;;;;;;;18.00;44.80;;;;;;8236549;28;20004;-49
2021/10/11 10:46:06;;;;;;;;;;;18.00;44.80;;;;;;8237323;28;19925;-49
2021/10/11 10:50:14;;;;;;;;;;;18.00;44.80;;;;;;8237232;28;19914;-49
2021/10/11 10:54:15;;;;;;;;;;;18.00;44.80;;;;;;8237211;28;20279;-49
2021/10/11 10:58:16;;;;;;;;;;;18.00;44.90;;;;;;8237003;28;19937;-52
2021/10/11 11:02:17;;;;;;;;;;;18.10;44.90;;;;;;8237722;28;19922;-51
2021/10/11 11:06:28;;;;;;;;;;;18.10;44.90;;;;;;8236414;28;19914;-51
2021/10/11 11:10:33;;;;;;;;;;;18.10;44.90;;;;;;8236978;28;19914;-52
2021/10/11 11:14:33;;;;;;;;;;;18.10;44.90;;;;;;8236555;28;20291;-47
2021/10/11 11:18:34;;;;;;;;;;;18.10;44.90;;;;;;8236607;28;19914;-49
2021/10/11 11:22:34;;;;;;;;;;;18.10;44.90;;;;;;8236062;28;19985;-48
2021/10/11 11:26:43;;;;;;;;;;;18.10;44.90;;;;;;8236204;28;20414;-49
2021/10/11 11:30:46;;;;;;;;;;;18.10;44.90;;;;;;8236009;28;20000;-51
2021/10/11 11:34:46;;;;;;;;;;;18.10;44.90;;;;;;8235943;28;20385;-49
2021/10/11 11:38:47;;;;;;;;;;;18.10;44.90;;;;;;8236047;28;19914;-51
2021/10/11 11:42:47;;;;;;;;;;;18.10;44.90;;;;;;8235523;28;20014;-49
2021/10/11 11:46:57;;;;;;;;;;;18.10;44.90;;;;;;8235795;28;19910;-49
2021/10/11 11:51:02;;;;;;;;;;;18.10;44.90;;;;;;8233419;28;20485;-49
2021/10/11 11:55:07;;;;;;;;;;;18.20;44.90;;;;;;8236120;28;20609;-49
2021/10/11 11:59:08;;;;;;;;;;;18.10;44.90;;;;;;8234908;28;19917;-51
2021/10/11 12:03:09;;;;;;;;;;;18.20;44.90;;;;;;8234555;28;19922;-48
2021/10/11 12:07:13;;;;;;;;;;;18.20;44.90;;;;;;8234879;28;19911;-48
2021/10/11 12:11:17;;;;;;;;;;;18.20;44.90;;;;;;8235016;28;19922;-48
2021/10/11 12:15:19;;;;;;;;;;;18.20;44.90;;;;;;8235023;28;20267;-50
2021/10/11 12:19:25;;;;;;;;;;;18.20;44.90;;;;;;8234421;28;20335;-49
2021/10/11 12:23:34;;;;;;;;;;;18.30;44.90;;;;;;8234326;28;19964;-47
2021/10/11 12:27:35;;;;;;;;;;;18.30;44.90;;;;;;8233768;28;19914;-48
2021/10/11 12:31:38;;;;;;;;;;;18.30;44.90;;;;;;8235122;28;20287;-48
2021/10/11 12:35:39;;;;;;;;;;;18.30;44.90;;;;;;8233730;28;19997;-47
2021/10/11 12:39:41;;;;;;;;;;;18.30;44.90;;;;;;8233969;28;19918;-50
2021/10/11 12:43:52;;;;;;;;;;;18.30;44.90;;;;;;8233711;28;19969;-48
2021/10/11 12:48:01;;;;;;;;;;;18.30;44.80;;;;;;8233351;28;19945;-48
2021/10/11 12:52:03;;;;;;;;;;;18.30;44.80;;;;;;8234352;28;19976;-49
2021/10/11 12:56:14;;;;;;;;;;;18.30;44.80;;;;;;8233702;28;20270;-47
2021/10/11 13:00:15;;;;;;;;;;;18.30;44.80;;;;;;8234111;28;20371;-50
2021/10/11 13:04:16;;;;;;;;;;;18.30;44.70;;;;;;8233060;28;19918;-50
2021/10/11 13:08:17;;;;;;;;;;;18.30;44.80;;;;;;8233159;28;19917;-48
2021/10/11 13:12:17;;;;;;;;;;;18.40;44.80;;;;;;8232583;28;19946;-48
2021/10/11 13:16:18;;;;;;;;;;;18.40;44.80;;;;;;8233053;28;19917;-47
2021/10/11 13:20:19;;;;;;;;;;;18.40;44.80;;;;;;8233074;28;19926;-49
2021/10/11 13:24:19;;;;;;;;;;;18.40;44.80;;;;;;8232193;28;19918;-50
2021/10/11 13:28:19;;;;;;;;;;;18.40;44.80;;;;;;8232965;28;19933;-52
2021/10/11 14:26:19;;;;;;;;;;;18.40;44.70;;;;;;8232248;28;20006;-52
2021/10/11 14:28:37;;;;;;;;;;;18.50;44.60;;;;;;8238087;28;19961;-49
2021/10/11 16:02:45;;;;;;;;;;;18.50;45.00;;;;;;8234824;28;19918;-49
2021/10/11 16:06:46;;;;;;;;;;;18.50;45.00;;;;;;8234329;28;20299;-51
2021/10/11 16:10:46;;;;;;;;;;;18.50;45.00;;;;;;8235298;28;20001;-50
2021/10/11 16:14:47;;;;;;;;;;;18.50;45.00;;;;;;8235041;28;19910;-50
2021/10/11 16:18:48;;;;;;;;;;;18.50;45.00;;;;;;8234949;28;19996;-49
2021/10/11 16:22:48;;;;;;;;;;;18.50;45.00;;;;;;8249324;28;19977;-48
2021/10/11 16:26:49;;;;;;;;;;;18.50;45.10;;;;;;8234060;28;20004;-48
2021/10/11 16:30:49;;;;;;;;;;;18.50;45.00;;;;;;8235406;28;20323;-51
2021/10/11 16:34:50;;;;;;;;;;;18.50;45.10;;;;;;8234190;28;19949;-52
2021/10/11 16:38:50;;;;;;;;;;;18.50;45.10;;;;;;8233633;28;20394;-50
2021/10/11 16:42:51;;;;;;;;;;;18.50;45.70;;;;;;8234018;28;20387;-52
2021/10/11 16:46:51;;;;;;;;;;;18.50;45.20;;;;;;8233525;28;20389;-50
2021/10/11 16:50:52;;;;;;;;;;;18.50;45.20;;;;;;8233863;28;19917;-49
2021/10/11 16:54:52;;;;;;;;;;;18.50;45.20;;;;;;8234161;28;19918;-52
2021/10/11 16:58:53;;;;;;;;;;;18.50;45.20;;;;;;8233749;28;19910;-49
2021/10/11 17:02:53;;;;;;;;;;;18.50;45.30;;;;;;8232841;28;19922;-50
2021/10/11 17:06:54;;;;;;;;;;;18.40;45.20;;;;;;8234064;28;19910;-49
2021/10/11 17:10:55;;;;;;;;;;;18.50;45.30;;;;;;8233209;28;20010;-52
2021/10/11 17:14:55;;;;;;;;;;;18.50;45.30;;;;;;8232872;28;20009;-51
2021/10/11 17:18:57;;;;;;;;;;;18.50;45.30;;;;;;8233202;28;19922;-50
2021/10/11 17:22:57;;;;;;;;;;;18.50;45.30;;;;;;8233705;28;19961;-52
2021/10/11 17:26:58;;;;;;;;;;;18.40;45.30;;;;;;8232665;28;19972;-50
2021/10/11 17:30:58;;;;;;;;;;;18.40;45.30;;;;;;8233006;28;19997;-51
2021/10/11 17:34:59;;;;;;;;;;;18.50;45.30;;;;;;8233355;28;19910;-53
2021/10/11 17:38:59;;;;;;;;;;;18.50;45.30;;;;;;8232340;28;19964;-51
2021/10/11 17:43:00;;;;;;;;;;;18.50;45.30;;;;;;8233326;28;19945;-49
2021/10/11 17:47:00;;;;;;;;;;;18.50;45.30;;;;;;8232585;28;19937;-50
2021/10/11 17:51:03;;;;;;;;;;;18.50;45.30;;;;;;8233269;28;19973;-50
2021/10/11 17:55:04;;;;;;;;;;;18.50;45.30;;;;;;8238972;28;20004;-49
2021/10/11 17:59:06;;;;;;;;;;;18.50;45.30;;;;;;8239693;28;20411;-50
2021/10/11 18:03:07;;;;;;;;;;;18.50;45.30;;;;;;8238330;28;19944;-51
2021/10/11 18:07:07;;;;;;;;;;;18.40;45.30;;;;;;8238643;28;19914;-50
2021/10/11 18:11:08;;;;;;;;;;;18.50;45.40;;;;;;8238798;28;19914;-51
2021/10/11 18:15:08;;;;;;;;;;;18.50;45.40;;;;;;8238007;28;19965;-50
2021/10/11 18:19:09;;;;;;;;;;;18.50;45.40;;;;;;8238996;28;19914;-50
2021/10/11 18:23:09;;;;;;;;;;;18.50;45.40;;;;;;8238183;28;19926;-50
2021/10/11 18:27:10;;;;;;;;;;;18.40;45.30;;;;;;8237716;28;20001;-50
2021/10/11 18:31:11;;;;;;;;;;;18.40;45.30;;;;;;8238402;28;19914;-49
2021/10/11 18:35:12;;;;;;;;;;;18.50;45.30;;;;;;8238637;28;19910;-50
2021/10/11 18:39:12;;;;;;;;;;;18.50;45.40;;;;;;8208580;28;20383;-50
2021/10/11 18:43:12;;;;;;;;;;;18.50;45.40;;;;;;8223501;28;19928;-49
2021/10/11 18:47:13;;;;;;;;;;;18.50;45.40;;;;;;8237746;28;20291;-51
2021/10/11 18:51:14;;;;;;;;;;;18.50;45.40;;;;;;8237758;28;19996;-50
2021/10/11 18:55:19;;;;;;;;;;;18.50;45.40;;;;;;8237817;28;19918;-49
2021/10/11 18:59:19;;;;;;;;;;;18.50;45.40;;;;;;8237233;28;19918;-50
2021/10/11 19:03:20;;;;;;;;;;;18.50;45.40;;;;;;8235279;28;20001;-50
2021/10/11 19:07:22;;;;;;;;;;;18.40;45.30;;;;;;8236785;28;19913;-50
2021/10/11 19:11:22;;;;;;;;;;;18.50;45.40;;;;;;8236915;28;20280;-50
2021/10/11 19:15:23;;;;;;;;;;;18.50;45.40;;;;;;8236661;28;19914;-49
2021/10/11 19:19:23;;;;;;;;;;;18.50;45.40;;;;;;8236813;28;19920;-49
2021/10/11 19:23:23;;;;;;;;;;;18.50;45.40;;;;;;8236575;28;19918;-50
2021/10/11 19:27:24;;;;;;;;;;;18.50;45.40;;;;;;8235228;28;19921;-49
2021/10/11 19:31:25;;;;;;;;;;;18.40;45.30;;;;;;8236502;28;20005;-49
2021/10/11 19:35:25;;;;;;;;;;;18.50;45.40;;;;;;8236284;28;19910;-49
2021/10/11 19:39:26;;;;;;;;;;;18.50;45.40;;;;;;8235693;28;19957;-49
2021/10/11 19:43:27;;;;;;;;;;;18.40;45.40;;;;;;8235797;28;19926;-50
2021/10/11 19:47:27;;;;;;;;;;;18.40;45.40;;;;;;8236208;28;19914;-46
2021/10/11 19:51:28;;;;;;;;;;;18.40;45.30;;;;;;8235265;28;19945;-48
2021/10/11 19:55:29;;;;;;;;;;;18.40;45.40;;;;;;8235358;28;20069;-51
2021/10/11 19:59:29;;;;;;;;;;;18.40;45.40;;;;;;8235375;28;19922;-50
2021/10/11 20:03:30;;;;;;;;;;;18.40;45.40;;;;;;8235426;28;20004;-50
2021/10/11 20:07:30;;;;;;;;;;;18.40;45.40;;;;;;8235326;28;19933;-49
2021/10/11 20:11:31;;;;;;;;;;;18.40;45.40;;;;;;8234987;28;19921;-50
2021/10/11 20:15:31;;;;;;;;;;;18.40;45.40;;;;;;8234250;28;19914;-49
2021/10/11 20:19:32;;;;;;;;;;;18.40;45.40;;;;;;8235659;28;19910;-49
2021/10/11 20:23:32;;;;;;;;;;;18.40;45.50;;;;;;8234524;28;19949;-49
2021/10/11 20:27:33;;;;;;;;;;;18.40;45.50;;;;;;8233981;28;19914;-52
2021/10/11 20:31:34;;;;;;;;;;;18.40;45.40;;;;;;8234454;28;19914;-51
2021/10/11 20:35:34;;;;;;;;;;;18.40;45.40;;;;;;8234250;28;19917;-50
2021/10/11 20:39:36;;;;;;;;;;;18.40;45.40;;;;;;8234398;28;20271;-50
2021/10/11 20:43:37;;;;;;;;;;;18.40;45.40;;;;;;8234140;28;19972;-50
2021/10/11 20:47:37;;;;;;;;;;;18.40;45.40;;;;;;8233795;28;20352;-49
2021/10/11 20:51:38;;;;;;;;;;;18.40;45.40;;;;;;8233255;28;20334;-48
2021/10/11 20:55:38;;;;;;;;;;;18.40;45.40;;;;;;8234540;28;19910;-49
2021/10/11 20:59:40;;;;;;;;;;;18.40;45.40;;;;;;8233267;28;19989;-48
2021/10/11 21:03:40;;;;;;;;;;;18.40;45.40;;;;;;8233573;28;20299;-50
2021/10/11 21:07:41;;;;;;;;;;;18.40;45.40;;;;;;8233975;28;19918;-48
2021/10/11 21:11:41;;;;;;;;;;;18.40;45.40;;;;;;8234163;28;19921;-52
2021/10/11 21:15:42;;;;;;;;;;;18.40;45.40;;;;;;8233878;28;19914;-49
2021/10/11 21:19:43;;;;;;;;;;;18.40;45.40;;;;;;8233862;28;19921;-49
2021/10/11 21:23:43;;;;;;;;;;;18.40;45.40;;;;;;8232814;28;19926;-49
2021/10/11 21:27:44;;;;;;;;;;;18.40;45.40;;;;;;8232346;28;19922;-50
2021/10/11 21:31:44;;;;;;;;;;;18.40;45.40;;;;;;8233593;28;19916;-52
2021/10/11 21:35:45;;;;;;;;;;;18.40;45.40;;;;;;8232614;28;19914;-52
2021/10/11 21:39:46;;;;;;;;;;;18.40;45.40;;;;;;8232768;28;19921;-50
2021/10/11 21:43:47;;;;;;;;;;;18.40;45.50;;;;;;8232715;28;19929;-49
2021/10/11 21:47:47;;;;;;;;;;;18.40;45.50;;;;;;8233237;28;19912;-50
2021/10/11 21:51:47;;;;;;;;;;;18.40;45.50;;;;;;8232756;28;19914;-49
2021/10/11 21:55:48;;;;;;;;;;;18.40;45.50;;;;;;8232683;28;19925;-49
2021/10/11 21:59:48;;;;;;;;;;;18.30;45.50;;;;;;8232135;28;19914;-49
2021/10/11 22:03:49;;;;;;;;;;;18.30;45.50;;;;;;8232678;28;19922;-48
2021/10/11 22:07:49;;;;;;;;;;;18.40;45.50;;;;;;8232230;28;19953;-49
2021/10/11 22:11:50;;;;;;;;;;;18.30;45.50;;;;;;8232264;28;20368;-48
2021/10/11 22:15:51;;;;;;;;;;;18.30;45.50;;;;;;8232523;28;19914;-49
2021/10/11 22:19:51;;;;;;;;;;;18.40;45.50;;;;;;8232437;28;19922;-49
2021/10/11 22:23:52;;;;;;;;;;;18.30;45.50;;;;;;8232528;28;19914;-49
2021/10/11 22:27:53;;;;;;;;;;;18.30;45.50;;;;;;8232458;28;19914;-49
2021/10/11 22:31:53;;;;;;;;;;;18.30;45.50;;;;;;8232002;28;20389;-49
2021/10/11 22:35:54;;;;;;;;;;;18.30;45.50;;;;;;8231753;28;19936;-49
2021/10/11 22:39:54;;;;;;;;;;;18.30;45.50;;;;;;8237785;28;19914;-49
2021/10/11 22:43:55;;;;;;;;;;;18.30;45.50;;;;;;8237639;28;19918;-49
2021/10/11 22:47:55;;;;;;;;;;;18.30;45.50;;;;;;8237101;28;19941;-49
2021/10/11 22:52:01;;;;;;;;;;;18.30;45.60;;;;;;8237396;28;19925;-49
2021/10/11 22:56:02;;;;;;;;;;;18.30;45.50;;;;;;8237528;28;19910;-49
2021/10/11 23:00:04;;;;;;;;;;;18.30;45.60;;;;;;8237529;28;19910;-49
2021/10/11 23:04:04;;;;;;;;;;;18.30;45.60;;;;;;8237350;28;20016;-50
2021/10/11 23:08:05;;;;;;;;;;;18.30;45.60;;;;;;8236888;28;19922;-48
2021/10/11 23:12:05;;;;;;;;;;;18.30;45.60;;;;;;8234986;28;20327;-49
2021/10/11 23:16:05;;;;;;;;;;;18.30;45.60;;;;;;8209401;28;19990;-49
2021/10/11 23:20:08;;;;;;;;;;;18.30;45.60;;;;;;8232449;28;19945;-48
2021/10/11 23:24:08;;;;;;;;;;;18.30;45.60;;;;;;8236035;28;19936;-48
2021/10/11 23:28:09;;;;;;;;;;;18.30;45.70;;;;;;8236383;28;20009;-49
2021/10/11 23:32:09;;;;;;;;;;;18.30;45.70;;;;;;8236875;28;19941;-49
2021/10/11 23:36:10;;;;;;;;;;;18.30;45.70;;;;;;8235672;28;19914;-49
2021/10/11 23:40:11;;;;;;;;;;;18.30;45.70;;;;;;8236074;28;19925;-49
2021/10/11 23:44:11;;;;;;;;;;;18.30;45.70;;;;;;8235866;28;20390;-49
2021/10/11 23:48:12;;;;;;;;;;;18.30;45.70;;;;;;8235005;28;20022;-48
2021/10/11 23:52:12;;;;;;;;;;;18.30;45.70;;;;;;8236080;28;19918;-49
2021/10/11 23:56:13;;;;;;;;;;;18.20;45.70;;;;;;8235422;28;19937;-49
